createdAt,value
2023-02-12T00:00:13.715Z,9.10
2023-02-12T00:02:43.882Z,7.40
2023-02-12T00:05:17.305Z,8.70
2023-02-12T00:07:53.952Z,7.25
2023-02-12T00:10:23.800Z,6.47
2023-02-12T00:12:54.057Z,6.85
2023-02-12T00:15:25.928Z,7.05
2023-02-12T00:18:00.636Z,7.85
2023-02-12T00:20:36.332Z,5.78
2023-02-12T00:23:12.107Z,6.18
2023-02-12T00:25:44.810Z,6.20
2023-02-12T00:28:17.755Z,5.22
2023-02-12T00:30:53.021Z,5.68
2023-02-12T00:33:20.563Z,5.60
2023-02-12T00:35:59.775Z,4.80
2023-02-12T00:38:30.092Z,5.13
2023-02-12T00:41:02.753Z,5.57
2023-02-12T00:43:38.756Z,4.38
2023-02-12T00:46:08.457Z,5.75
2023-02-12T00:48:36.882Z,4.75
2023-02-12T00:51:07.545Z,5.32
2023-02-12T00:53:38.321Z,4.95
2023-02-12T00:56:08.923Z,4.55
2023-02-12T00:58:44.145Z,3.92
2023-02-12T01:01:17.288Z,3.17
2023-02-12T01:03:44.232Z,4.57
2023-02-12T01:06:17.115Z,4.53
2023-02-12T01:08:50.146Z,3.90
2023-02-12T01:11:23.800Z,5.18
2023-02-12T01:13:57.860Z,4.28
2023-02-12T01:16:34.011Z,4.40
2023-02-12T01:19:07.452Z,4.18
2023-02-12T01:21:41.712Z,3.45
2023-02-12T01:24:17.553Z,5.13
2023-02-12T01:26:49.733Z,3.72
2023-02-12T01:29:19.241Z,3.85
2023-02-12T01:31:46.296Z,3.85
2023-02-12T01:34:19.445Z,3.90
2023-02-12T01:36:55.856Z,5.03
2023-02-12T01:39:25.638Z,5.15
2023-02-12T01:41:58.003Z,6.40
2023-02-12T01:44:31.044Z,6.82
2023-02-12T01:47:05.950Z,3.30
2023-02-12T01:49:48.058Z,5.15
2023-02-12T01:52:18.237Z,5.20
2023-02-12T01:54:57.182Z,3.83
2023-02-12T01:57:35.397Z,5.07
2023-02-12T02:00:10.131Z,3.00
2023-02-12T02:02:40.820Z,4.80
2023-02-12T02:05:14.332Z,6.80
2023-02-12T02:07:43.983Z,5.50
2023-02-12T02:10:18.771Z,6.47
2023-02-12T02:13:06.891Z,6.75
2023-02-12T02:15:37.197Z,7.95
2023-02-12T02:18:30.202Z,5.45
2023-02-12T02:21:13.271Z,4.93
2023-02-12T02:23:50.916Z,4.78
2023-02-12T02:26:31.708Z,4.15
2023-02-12T02:29:20.040Z,3.75
2023-02-12T02:31:51.662Z,2.60
2023-02-12T02:34:27.841Z,2.75
2023-02-12T02:37:10.379Z,3.40
2023-02-12T02:39:58.230Z,2.65
2023-02-12T02:42:32.200Z,3.63
2023-02-12T02:45:17.675Z,3.30
2023-02-12T02:47:56.677Z,3.70
2023-02-12T02:50:28.433Z,2.90
2023-02-12T02:53:13.752Z,2.22
2023-02-12T02:55:46.694Z,2.63
2023-02-12T02:58:22.737Z,4.07
2023-02-12T03:01:07.635Z,3.78
2023-02-12T03:03:49.491Z,4.55
2023-02-12T03:06:38.884Z,4.47
2023-02-12T03:09:26.627Z,4.35
2023-02-12T03:11:58.234Z,3.55
2023-02-12T03:14:40.025Z,4.43
2023-02-12T03:17:21.596Z,3.70
2023-02-12T03:19:56.426Z,2.83
2023-02-12T03:22:28.568Z,2.72
2023-02-12T03:25:00.812Z,3.20
2023-02-12T03:27:34.514Z,3.08
2023-02-12T03:30:11.717Z,2.83
2023-02-12T03:32:50.477Z,3.47
2023-02-12T03:35:26.471Z,3.08
2023-02-12T03:38:02.233Z,4.00
2023-02-12T03:40:44.088Z,4.05
2023-02-12T03:43:24.084Z,3.25
2023-02-12T03:46:02.846Z,3.40
2023-02-12T03:48:43.615Z,2.88
2023-02-12T03:51:25.350Z,2.75
2023-02-12T03:54:03.062Z,2.85
2023-02-12T03:56:41.603Z,2.42
2023-02-12T03:59:14.715Z,2.45
2023-02-12T04:01:48.455Z,3.65
2023-02-12T04:04:19.080Z,3.30
2023-02-12T04:06:53.371Z,2.90
2023-02-12T04:09:22.122Z,3.08
2023-02-12T04:12:10.214Z,2.45
2023-02-12T04:14:48.836Z,3.10
2023-02-12T04:17:21.995Z,1.67
2023-02-12T04:20:03.433Z,2.60
2023-02-12T04:22:34.889Z,3.42
2023-02-12T04:25:13.415Z,3.70
2023-02-12T04:28:10.764Z,3.08
2023-02-12T04:30:54.184Z,2.45
2023-02-12T04:33:31.770Z,2.47
2023-02-12T04:36:06.189Z,2.75
2023-02-12T04:38:45.820Z,3.33
2023-02-12T04:41:29.311Z,3.00
2023-02-12T04:44:03.532Z,2.90
2023-02-12T04:46:37.551Z,2.75
2023-02-12T04:49:26.651Z,3.97
2023-02-12T04:51:59.332Z,2.95
2023-02-12T04:54:31.273Z,3.22
2023-02-12T04:57:02.667Z,2.90
2023-02-12T04:59:39.404Z,2.83
2023-02-12T05:02:12.648Z,2.75
2023-02-12T05:04:48.036Z,2.75
2023-02-12T05:07:21.389Z,3.42
2023-02-12T05:09:52.108Z,4.13
2023-02-12T05:12:25.770Z,3.70
2023-02-12T05:14:58.152Z,4.22
2023-02-12T05:17:30.946Z,2.88
2023-02-12T05:20:01.279Z,2.85
2023-02-12T05:22:34.842Z,4.03
2023-02-12T05:25:08.843Z,2.92
2023-02-12T05:27:39.042Z,3.25
2023-02-12T05:30:12.235Z,2.92
2023-02-12T05:32:39.772Z,2.80
2023-02-12T05:35:10.646Z,3.88
2023-02-12T05:37:43.768Z,3.65
2023-02-12T05:40:14.553Z,2.58
2023-02-12T05:42:45.121Z,2.10
2023-02-12T05:45:16.002Z,2.83
2023-02-12T05:47:49.148Z,2.53
2023-02-12T05:50:19.716Z,3.58
2023-02-12T05:52:51.913Z,2.47
2023-02-12T05:55:22.928Z,2.22
2023-02-12T05:57:55.992Z,1.38
2023-02-12T06:00:26.324Z,4.00
2023-02-12T06:05:51.235Z,4.07
2023-02-12T06:08:24.502Z,3.72
2023-02-12T06:10:58.838Z,3.20
2023-02-12T06:13:26.232Z,3.65
2023-02-12T06:15:55.833Z,4.03
2023-02-12T06:18:23.756Z,3.95
2023-02-12T06:20:55.039Z,3.13
2023-02-12T06:23:28.143Z,4.78
2023-02-12T06:25:57.651Z,6.25
2023-02-12T06:28:28.176Z,4.63
2023-02-12T06:30:59.168Z,4.38
2023-02-12T06:33:28.996Z,5.53
2023-02-12T06:36:01.031Z,6.32
2023-02-12T06:41:29.108Z,5.72
2023-02-12T06:43:56.433Z,5.15
2023-02-12T06:46:24.372Z,4.68
2023-02-12T06:49:03.163Z,5.90
2023-02-12T06:51:33.241Z,5.43
2023-02-12T06:54:00.821Z,5.78
2023-02-12T06:56:33.691Z,5.53
2023-02-12T06:59:03.751Z,4.22
2023-02-12T07:01:34.737Z,4.38
2023-02-12T07:04:05.926Z,5.00
2023-02-12T07:06:37.972Z,5.38
2023-02-12T07:09:14.488Z,5.10
2023-02-12T07:11:47.667Z,5.45
2023-02-12T07:14:20.887Z,4.70
2023-02-12T07:16:56.895Z,3.22
2023-02-12T07:19:28.046Z,4.15
2023-02-12T07:21:57.861Z,3.95
2023-02-12T07:24:34.410Z,3.90
2023-02-12T07:27:11.569Z,5.03
2023-02-12T07:29:44.876Z,4.45
2023-02-12T07:32:18.791Z,5.82
2023-02-12T07:34:53.211Z,4.78
2023-02-12T07:37:29.798Z,2.95
2023-02-12T07:40:03.081Z,4.30
2023-02-12T07:42:30.720Z,3.47
2023-02-12T07:45:03.830Z,4.05
2023-02-12T07:47:39.639Z,4.55
2023-02-12T07:50:09.841Z,4.18
2023-02-12T07:52:43.283Z,4.20
2023-02-12T07:55:16.267Z,3.47
2023-02-12T07:57:52.674Z,4.82
2023-02-12T08:00:19.953Z,3.80
2023-02-12T08:02:58.391Z,3.25
2023-02-12T08:05:37.240Z,3.95
2023-02-12T08:08:04.920Z,4.65
2023-02-12T08:10:37.761Z,3.42
2023-02-12T08:13:08.548Z,3.90
2023-02-12T08:15:44.592Z,4.68
2023-02-12T08:18:16.918Z,4.40
2023-02-12T08:20:48.671Z,3.80
2023-02-12T08:23:24.204Z,4.78
2023-02-12T08:26:00.924Z,3.92
2023-02-12T08:28:31.836Z,4.20
2023-02-12T08:31:05.622Z,5.28
2023-02-12T08:33:39.237Z,5.13
2023-02-12T08:36:19.007Z,4.78
2023-02-12T08:38:47.492Z,5.50
2023-02-12T08:41:27.070Z,4.68
2023-02-12T08:44:10.771Z,5.55
2023-02-12T08:46:44.153Z,5.20
2023-02-12T08:49:22.378Z,5.95
2023-02-12T08:51:52.917Z,4.68
2023-02-12T08:54:27.278Z,5.20
2023-02-12T08:56:58.646Z,6.30
2023-02-12T08:59:29.678Z,7.03
2023-02-12T09:02:04.917Z,8.75
2023-02-12T09:04:32.224Z,5.60
2023-02-12T09:07:10.649Z,6.25
2023-02-12T09:09:41.268Z,6.38
2023-02-12T09:12:17.217Z,7.35
2023-02-12T09:14:50.382Z,7.15
2023-02-12T09:17:20.350Z,7.03
2023-02-12T09:19:50.197Z,6.55
2023-02-12T09:22:20.657Z,8.32
2023-02-12T09:24:51.581Z,8.55
2023-02-12T09:27:21.632Z,7.60
2023-02-12T09:29:56.651Z,6.90
2023-02-12T09:32:32.789Z,6.70
2023-02-12T09:35:06.032Z,6.53
2023-02-12T09:37:38.359Z,6.53
2023-02-12T09:40:11.426Z,6.68
2023-02-12T09:42:59.836Z,6.78
2023-02-12T09:45:33.204Z,9.38
2023-02-12T09:48:09.164Z,8.25
2023-02-12T09:50:55.667Z,6.95
2023-02-12T09:53:30.234Z,6.30
2023-02-12T09:55:58.192Z,7.07
2023-02-12T09:58:39.292Z,7.00
2023-02-12T10:01:23.214Z,7.28
2023-02-12T10:03:53.014Z,7.32
2023-02-12T10:06:27.984Z,8.27
2023-02-12T10:08:58.309Z,7.47
2023-02-12T10:11:40.752Z,7.95
2023-02-12T10:14:20.360Z,6.78
2023-02-12T10:17:17.550Z,4.38
2023-02-12T10:23:24.120Z,6.65
2023-02-12T10:25:58.973Z,4.57
2023-02-12T10:28:46.250Z,6.47
2023-02-12T10:31:17.890Z,5.40
2023-02-12T10:33:46.840Z,5.93
2023-02-12T10:36:20.522Z,6.13
2023-02-12T10:38:55.802Z,5.45
2023-02-12T10:41:30.790Z,4.65
2023-02-12T10:43:58.398Z,4.55
2023-02-12T10:46:36.596Z,4.70
2023-02-12T10:49:09.518Z,5.88
2023-02-12T10:51:41.075Z,4.47
2023-02-12T10:54:31.770Z,5.00
2023-02-12T10:57:12.738Z,4.72
2023-02-12T10:59:47.029Z,2.65
2023-02-12T11:02:28.211Z,4.68
2023-02-12T11:05:01.927Z,3.15
2023-02-12T11:07:49.498Z,2.63
2023-02-12T11:10:33.510Z,2.05
2023-02-12T11:13:05.654Z,3.08
2023-02-12T11:15:38.938Z,3.45
2023-02-12T11:18:12.081Z,4.25
2023-02-12T11:20:50.447Z,4.57
2023-02-12T11:24:05.132Z,4.00
2023-02-12T11:26:41.841Z,3.88
2023-02-12T11:29:26.387Z,3.95
2023-02-12T11:32:03.711Z,5.60
2023-02-12T11:37:23.626Z,3.28
2023-02-12T11:39:54.662Z,3.10
2023-02-12T11:42:26.019Z,2.97
2023-02-12T11:44:53.140Z,3.42
2023-02-12T11:47:27.719Z,5.55
2023-02-12T11:50:13.296Z,3.95
2023-02-12T11:52:44.500Z,4.97
2023-02-12T11:55:33.391Z,4.35
2023-02-12T11:58:24.914Z,5.30
2023-02-12T12:01:07.576Z,4.13
2023-02-12T12:04:04.554Z,3.28
2023-02-12T12:06:48.332Z,2.20
2023-02-12T12:09:25.538Z,1.35
2023-02-12T12:12:01.948Z,2.22
2023-02-12T12:14:57.706Z,3.50
2023-02-12T12:17:46.269Z,2.72
2023-02-12T12:20:22.104Z,4.03
2023-02-12T12:23:04.454Z,2.50
2023-02-12T12:25:38.044Z,5.15
2023-02-12T12:28:19.722Z,4.03
2023-02-12T12:31:05.274Z,4.72
2023-02-12T12:33:44.183Z,5.13
2023-02-12T12:36:41.683Z,5.75
2023-02-12T12:39:30.164Z,5.40
2023-02-12T12:42:15.535Z,6.05
2023-02-12T12:45:10.101Z,4.75
2023-02-12T12:47:53.415Z,5.70
2023-02-12T12:50:39.420Z,4.20
2023-02-12T12:53:29.025Z,3.85
2023-02-12T12:56:14.689Z,4.32
2023-02-12T12:58:45.096Z,4.25
2023-02-12T13:01:27.525Z,3.95
2023-02-12T13:04:06.040Z,4.13
2023-02-12T13:06:52.869Z,4.45
2023-02-12T13:09:41.173Z,4.32
2023-02-12T13:12:22.852Z,4.68
2023-02-12T13:15:08.659Z,4.80
2023-02-12T13:17:42.102Z,4.78
2023-02-12T13:20:24.223Z,4.03
2023-02-12T13:23:04.988Z,2.97
2023-02-12T13:25:45.128Z,3.17
2023-02-12T13:28:18.604Z,3.72
2023-02-12T13:30:51.341Z,3.85
2023-02-12T13:33:25.571Z,4.07
2023-02-12T13:35:55.273Z,4.15
2023-02-12T13:38:37.741Z,3.05
2023-02-12T13:41:13.784Z,4.05
2023-02-12T13:44:00.821Z,3.40
2023-02-12T13:46:33.573Z,4.97
2023-02-12T13:49:20.806Z,4.28
2023-02-12T13:51:50.282Z,4.28
2023-02-12T13:54:29.944Z,4.25
2023-02-12T13:57:03.276Z,2.92
2023-02-12T13:59:39.496Z,3.38
2023-02-12T14:02:28.998Z,4.50
2023-02-12T14:05:01.127Z,4.75
2023-02-12T14:07:47.192Z,4.63
2023-02-12T14:10:31.260Z,4.70
2023-02-12T14:13:20.144Z,4.50
2023-02-12T14:15:52.174Z,4.75
2023-02-12T14:18:49.369Z,3.80
2023-02-12T14:21:20.483Z,3.05
2023-02-12T14:23:48.303Z,3.13
2023-02-12T14:26:18.668Z,3.70
2023-02-12T14:28:48.980Z,4.38
2023-02-12T14:31:25.109Z,3.45
2023-02-12T14:34:07.977Z,4.28
2023-02-12T14:36:46.132Z,4.20
2023-02-12T14:39:25.620Z,4.38
2023-02-12T14:41:57.813Z,4.60
2023-02-12T14:44:31.213Z,4.53
2023-02-12T14:47:09.002Z,4.28
2023-02-12T14:49:49.782Z,3.75
2023-02-12T14:52:34.091Z,3.60
2023-02-12T14:55:09.925Z,4.57
2023-02-12T14:57:43.210Z,4.55
2023-02-12T15:00:25.623Z,4.65
2023-02-12T15:03:04.330Z,4.00
2023-02-12T15:05:38.853Z,5.20
2023-02-12T15:08:12.389Z,3.95
2023-02-12T15:11:02.775Z,3.97
2023-02-12T15:13:50.489Z,4.47
2023-02-12T15:16:38.586Z,3.53
2023-02-12T15:19:23.797Z,2.00
2023-02-12T15:22:05.369Z,3.42
2023-02-12T15:24:36.096Z,3.30
2023-02-12T15:27:06.288Z,4.28
2023-02-12T15:29:56.097Z,4.47
2023-02-12T15:32:30.524Z,3.85
2023-02-12T15:34:58.646Z,3.67
2023-02-12T15:37:37.415Z,4.03
2023-02-12T15:40:09.387Z,4.85
2023-02-12T15:42:43.453Z,3.85
2023-02-12T15:45:27.369Z,3.97
2023-02-12T15:48:04.818Z,3.88
2023-02-12T15:50:40.575Z,4.47
2023-02-12T15:53:11.385Z,4.07
2023-02-12T15:55:42.293Z,4.03
2023-02-12T15:58:25.103Z,4.45
2023-02-12T16:00:53.426Z,3.88
2023-02-12T16:03:24.634Z,4.22
2023-02-12T16:06:01.506Z,4.28
2023-02-12T16:08:32.927Z,4.72
2023-02-12T16:11:17.333Z,3.40
2023-02-12T16:13:53.020Z,4.82
2023-02-12T16:16:28.251Z,4.40
2023-02-12T16:22:02.720Z,4.22
2023-02-12T16:24:35.133Z,3.40
2023-02-12T16:27:09.059Z,3.63
2023-02-12T16:29:45.255Z,4.88
2023-02-12T16:32:33.488Z,4.45
2023-02-12T16:35:27.496Z,3.90
2023-02-12T16:38:05.534Z,4.18
2023-02-12T16:40:34.251Z,3.78
2023-02-12T16:43:04.908Z,4.05
2023-02-12T16:45:36.566Z,4.35
2023-02-12T16:48:12.624Z,3.33
2023-02-12T16:51:01.792Z,3.30
2023-02-12T16:53:43.852Z,3.78
2023-02-12T16:56:19.330Z,3.47
2023-02-12T16:58:47.168Z,4.05
2023-02-12T17:01:33.776Z,3.75
2023-02-12T17:04:08.432Z,4.75
2023-02-12T17:06:38.614Z,4.93
2023-02-12T17:09:13.921Z,3.85
2023-02-12T17:11:46.048Z,3.22
2023-02-12T17:14:18.139Z,3.08
2023-02-12T17:16:51.212Z,2.65
2023-02-12T17:19:23.932Z,3.25
2023-02-12T17:21:52.662Z,3.75
2023-02-12T17:24:26.965Z,3.38
2023-02-12T17:26:58.149Z,3.13
2023-02-12T17:29:28.693Z,4.00
2023-02-12T17:32:01.470Z,3.60
2023-02-12T17:34:46.585Z,3.35
2023-02-12T17:37:15.297Z,3.28
2023-02-12T17:39:45.428Z,2.97
2023-02-12T17:42:13.284Z,3.53
2023-02-12T17:44:42.896Z,3.08
2023-02-12T17:47:15.898Z,3.58
2023-02-12T17:49:48.436Z,3.38
2023-02-12T17:52:21.021Z,3.28
2023-02-12T17:54:50.941Z,2.78
2023-02-12T17:57:25.104Z,2.75
2023-02-12T17:59:55.584Z,3.08
2023-02-12T18:02:34.741Z,2.95
2023-02-12T18:05:08.144Z,2.78
2023-02-12T18:07:40.527Z,2.60
2023-02-12T18:10:11.651Z,2.72
2023-02-12T18:12:41.915Z,2.88
2023-02-12T18:15:15.140Z,2.17
2023-02-12T18:17:50.593Z,2.30
2023-02-12T18:20:24.843Z,1.98
2023-02-12T18:22:52.727Z,2.22
2023-02-12T18:25:22.946Z,2.15
2023-02-12T18:27:55.247Z,2.42
2023-02-12T18:30:22.650Z,2.33
2023-02-12T18:33:01.862Z,2.17
2023-02-12T18:35:32.388Z,3.10
2023-02-12T18:38:06.261Z,2.00
2023-02-12T18:40:36.978Z,2.33
2023-02-12T18:43:07.469Z,2.10
2023-02-12T18:45:39.698Z,2.88
2023-02-12T18:48:09.765Z,2.30
2023-02-12T18:50:45.692Z,2.15
2023-02-12T18:53:15.601Z,2.00
2023-02-12T18:55:52.097Z,2.60
2023-02-12T18:58:25.540Z,2.55
2023-02-12T19:00:56.377Z,3.00
2023-02-12T19:03:27.138Z,2.33
2023-02-12T19:06:04.855Z,2.70
2023-02-12T19:08:40.629Z,1.98
2023-02-12T19:11:08.341Z,2.83
2023-02-12T19:13:38.258Z,2.60
2023-02-12T19:16:12.684Z,2.42
2023-02-12T19:18:46.538Z,2.03
2023-02-12T19:21:20.418Z,1.80
2023-02-12T19:23:51.896Z,2.67
2023-02-12T19:26:24.675Z,1.63
2023-02-12T19:28:59.331Z,2.45
2023-02-12T19:31:37.402Z,2.90
2023-02-12T19:34:09.533Z,1.70
2023-02-12T19:36:43.206Z,2.50
2023-02-12T19:39:17.454Z,2.70
2023-02-12T19:41:56.513Z,2.60
2023-02-12T19:44:29.098Z,2.17
2023-02-12T19:47:00.441Z,3.45
2023-02-12T19:49:34.634Z,2.42
2023-02-12T19:52:10.535Z,2.78
2023-02-12T19:54:43.222Z,2.67
2023-02-12T19:57:12.579Z,1.83
2023-02-12T19:59:46.948Z,1.80
2023-02-12T20:02:17.538Z,2.30
2023-02-12T20:04:50.333Z,1.88
2023-02-12T20:07:25.539Z,2.17
2023-02-12T20:09:52.905Z,2.15
2023-02-12T20:12:20.258Z,2.22
2023-02-12T20:14:55.542Z,1.67
2023-02-12T20:17:26.214Z,2.00
2023-02-12T20:19:56.430Z,1.77
2023-02-12T20:22:26.903Z,3.53
2023-02-12T20:24:54.141Z,2.65
2023-02-12T20:27:25.452Z,3.08
2023-02-12T20:29:55.654Z,1.75
2023-02-12T20:32:24.415Z,1.92
2023-02-12T20:35:00.578Z,2.30
2023-02-12T20:37:34.215Z,2.67
2023-02-12T20:40:10.221Z,2.58
2023-02-12T20:42:41.938Z,2.22
2023-02-12T20:45:12.814Z,2.75
2023-02-12T20:47:46.172Z,2.70
2023-02-12T20:50:16.488Z,3.00
2023-02-12T20:52:47.666Z,2.38
2023-02-12T20:55:23.084Z,2.40
2023-02-12T20:57:50.178Z,2.72
2023-02-12T21:00:21.578Z,2.60
2023-02-12T21:02:48.963Z,2.28
2023-02-12T21:05:19.118Z,2.53
2023-02-12T21:07:50.070Z,2.97
2023-02-12T21:10:18.202Z,2.65
2023-02-12T21:12:45.146Z,3.03
2023-02-12T21:15:15.142Z,2.92
2023-02-12T21:17:47.891Z,2.90
2023-02-12T21:20:20.961Z,2.33
2023-02-12T21:22:53.414Z,2.30
2023-02-12T21:25:24.129Z,2.60
2023-02-12T21:27:57.049Z,2.88
2023-02-12T21:30:27.639Z,2.30
2023-02-12T21:33:03.647Z,3.50
2023-02-12T21:35:39.255Z,3.20
2023-02-12T21:38:06.417Z,2.40
2023-02-12T21:40:43.143Z,2.60
2023-02-12T21:43:13.554Z,2.08
2023-02-12T21:45:53.106Z,2.50
2023-02-12T21:48:28.622Z,2.53
2023-02-12T21:50:59.617Z,2.80
2023-02-12T21:53:35.284Z,1.95
2023-02-12T21:56:03.485Z,2.38
2023-02-12T21:58:35.610Z,2.22
2023-02-12T22:01:15.052Z,1.92
2023-02-12T22:03:51.368Z,3.10
2023-02-12T22:06:32.166Z,2.25
2023-02-12T22:09:06.757Z,2.47
2023-02-12T22:11:37.275Z,2.83
2023-02-12T22:14:10.880Z,2.30
2023-02-12T22:16:41.329Z,2.40
2023-02-12T22:19:11.804Z,2.35
2023-02-12T22:21:51.674Z,2.00
2023-02-12T22:24:19.085Z,2.13
2023-02-12T22:26:54.788Z,2.00
2023-02-12T22:29:23.004Z,2.00
2023-02-12T22:31:59.779Z,2.15
2023-02-12T22:34:36.350Z,2.28
2023-02-12T22:37:15.602Z,2.28
2023-02-12T22:39:46.073Z,2.13
2023-02-12T22:42:19.063Z,2.45
2023-02-12T22:44:52.242Z,2.92
2023-02-12T22:47:28.876Z,2.25
2023-02-12T22:50:02.388Z,1.60
2023-02-12T22:52:41.484Z,2.33
2023-02-12T22:55:08.674Z,2.25
2023-02-12T22:57:44.939Z,2.35
2023-02-12T23:00:15.111Z,2.17
2023-02-12T23:02:47.915Z,1.67
2023-02-12T23:05:23.718Z,2.15
2023-02-12T23:07:55.917Z,1.77
2023-02-12T23:10:32.192Z,2.55
2023-02-12T23:13:02.745Z,2.40
2023-02-12T23:15:35.898Z,2.58
2023-02-12T23:18:07.884Z,2.22
2023-02-12T23:20:37.624Z,1.85
2023-02-12T23:23:09.093Z,2.42
2023-02-12T23:25:36.955Z,2.50
2023-02-12T23:28:04.597Z,2.40
2023-02-12T23:30:37.616Z,1.90
2023-02-12T23:33:11.294Z,2.33
2023-02-12T23:35:45.132Z,2.42
2023-02-12T23:38:22.176Z,2.63
2023-02-12T23:41:03.099Z,2.83
2023-02-12T23:43:42.108Z,2.47
2023-02-12T23:46:11.923Z,2.40
2023-02-12T23:48:40.657Z,3.10
2023-02-12T23:51:11.187Z,3.28
2023-02-12T23:53:47.336Z,2.53
2023-02-12T23:56:18.223Z,2.13
2023-02-12T23:58:49.369Z,2.97
